sensor_id;sensor_type;location;lat;lon;timestamp;P1;durP1;ratioP1;P2;durP2;ratioP2
13075;SDS011;6604;52.484;13.330;2022-07-23T07:48:42;9.43;;;5.37;;
13075;SDS011;6604;52.484;13.330;2022-07-23T07:51:08;7.13;;;4.90;;
13075;SDS011;6604;52.484;13.330;2022-07-23T07:53:35;8.33;;;4.80;;
13075;SDS011;6604;52.484;13.330;2022-07-23T07:56:01;8.33;;;5.20;;
13075;SDS011;6604;52.484;13.330;2022-07-23T07:58:27;11.03;;;5.20;;
13075;SDS011;6604;52.484;13.330;2022-07-23T08:00:54;7.43;;;4.50;;
13075;SDS011;6604;52.484;13.330;2022-07-23T08:03:20;4.73;;;4.13;;
13075;SDS011;6604;52.484;13.330;2022-07-23T08:05:48;8.10;;;5.33;;
13075;SDS011;6604;52.484;13.330;2022-07-23T08:08:14;7.17;;;4.87;;
13075;SDS011;6604;52.484;13.330;2022-07-23T08:10:41;6.67;;;4.70;;
13075;SDS011;6604;52.484;13.330;2022-07-23T08:13:11;5.53;;;4.07;;
13075;SDS011;6604;52.484;13.330;2022-07-23T08:15:38;7.47;;;4.50;;
13075;SDS011;6604;52.484;13.330;2022-07-23T08:18:04;7.90;;;4.40;;
13075;SDS011;6604;52.484;13.330;2022-07-23T08:20:31;4.87;;;4.10;;
13075;SDS011;6604;52.484;13.330;2022-07-23T08:22:59;8.40;;;4.17;;
13075;SDS011;6604;52.484;13.330;2022-07-23T08:25:27;7.43;;;4.30;;
13075;SDS011;6604;52.484;13.330;2022-07-23T08:27:53;6.27;;;4.03;;
13075;SDS011;6604;52.484;13.330;2022-07-23T08:30:20;8.73;;;3.67;;
13075;SDS011;6604;52.484;13.330;2022-07-23T08:32:48;6.80;;;3.90;;
13075;SDS011;6604;52.484;13.330;2022-07-23T08:35:14;4.43;;;3.80;;
13075;SDS011;6604;52.484;13.330;2022-07-23T08:37:41;5.17;;;3.77;;
13075;SDS011;6604;52.484;13.330;2022-07-23T08:40:09;5.60;;;3.70;;
13075;SDS011;6604;52.484;13.330;2022-07-23T08:42:36;5.90;;;4.10;;
13075;SDS011;6604;52.484;13.330;2022-07-23T08:45:04;6.43;;;3.40;;
13075;SDS011;6604;52.484;13.330;2022-07-23T08:47:31;7.27;;;3.50;;
13075;SDS011;6604;52.484;13.330;2022-07-23T08:49:58;9.73;;;3.70;;
13075;SDS011;6604;52.484;13.330;2022-07-23T08:52:25;7.67;;;3.57;;
13075;SDS011;6604;52.484;13.330;2022-07-23T08:54:52;6.63;;;3.20;;
13075;SDS011;6604;52.484;13.330;2022-07-23T08:57:20;5.07;;;3.33;;
13075;SDS011;6604;52.484;13.330;2022-07-23T08:59:46;5.50;;;3.30;;
13075;SDS011;6604;52.484;13.330;2022-07-23T09:02:13;4.80;;;3.80;;
13075;SDS011;6604;52.484;13.330;2022-07-23T09:04:40;6.37;;;3.70;;
13075;SDS011;6604;52.484;13.330;2022-07-23T09:07:06;7.77;;;3.40;;
13075;SDS011;6604;52.484;13.330;2022-07-23T09:09:32;6.03;;;3.30;;
13075;SDS011;6604;52.484;13.330;2022-07-23T09:12:02;5.63;;;3.47;;
13075;SDS011;6604;52.484;13.330;2022-07-23T09:14:38;7.63;;;5.00;;
13075;SDS011;6604;52.484;13.330;2022-07-23T09:17:11;7.13;;;3.90;;
13075;SDS011;6604;52.484;13.330;2022-07-23T09:19:37;6.67;;;4.10;;
13075;SDS011;6604;52.484;13.330;2022-07-23T09:22:17;7.93;;;4.47;;
13075;SDS011;6604;52.484;13.330;2022-07-23T09:27:25;5.83;;;3.70;;
13075;SDS011;6604;52.484;13.330;2022-07-23T09:30:12;4.77;;;3.47;;
13075;SDS011;6604;52.484;13.330;2022-07-23T09:32:38;6.87;;;3.83;;
13075;SDS011;6604;52.484;13.330;2022-07-23T09:35:05;9.10;;;4.13;;
13075;SDS011;6604;52.484;13.330;2022-07-23T09:37:32;5.77;;;3.80;;
13075;SDS011;6604;52.484;13.330;2022-07-23T09:40:03;4.47;;;3.80;;
13075;SDS011;6604;52.484;13.330;2022-07-23T09:42:29;5.33;;;4.37;;
13075;SDS011;6604;52.484;13.330;2022-07-23T09:44:56;6.80;;;3.93;;
13075;SDS011;6604;52.484;13.330;2022-07-23T09:47:26;7.63;;;5.00;;
13075;SDS011;6604;52.484;13.330;2022-07-23T09:50:00;5.83;;;4.07;;
13075;SDS011;6604;52.484;13.330;2022-07-23T09:52:26;5.47;;;4.20;;
13075;SDS011;6604;52.484;13.330;2022-07-23T09:54:57;5.97;;;4.47;;
13075;SDS011;6604;52.484;13.330;2022-07-23T09:57:23;8.00;;;4.57;;
13075;SDS011;6604;52.484;13.330;2022-07-23T09:59:50;4.93;;;3.87;;
13075;SDS011;6604;52.484;13.330;2022-07-23T10:02:16;7.50;;;4.10;;
13075;SDS011;6604;52.484;13.330;2022-07-23T10:04:44;7.33;;;4.17;;
13075;SDS011;6604;52.484;13.330;2022-07-23T10:07:12;5.70;;;3.47;;
13075;SDS011;6604;52.484;13.330;2022-07-23T10:09:40;6.40;;;3.83;;
13075;SDS011;6604;52.484;13.330;2022-07-23T10:12:09;5.43;;;4.23;;
13075;SDS011;6604;52.484;13.330;2022-07-23T10:14:41;6.83;;;3.97;;
13075;SDS011;6604;52.484;13.330;2022-07-23T10:17:08;8.93;;;3.83;;
13075;SDS011;6604;52.484;13.330;2022-07-23T10:19:34;5.13;;;3.57;;
13075;SDS011;6604;52.484;13.330;2022-07-23T10:22:03;5.77;;;4.13;;
13075;SDS011;6604;52.484;13.330;2022-07-23T10:24:36;8.03;;;4.23;;
13075;SDS011;6604;52.484;13.330;2022-07-23T10:27:12;4.93;;;3.57;;
13075;SDS011;6604;52.484;13.330;2022-07-23T10:29:47;5.77;;;3.80;;
13075;SDS011;6604;52.484;13.330;2022-07-23T10:32:17;6.80;;;3.97;;
13075;SDS011;6604;52.484;13.330;2022-07-23T10:34:48;4.87;;;3.40;;
13075;SDS011;6604;52.484;13.330;2022-07-23T10:37:22;4.50;;;3.60;;
13075;SDS011;6604;52.484;13.330;2022-07-23T10:42:34;4.60;;;3.43;;
13075;SDS011;6604;52.484;13.330;2022-07-23T10:45:01;5.17;;;3.53;;
13075;SDS011;6604;52.484;13.330;2022-07-23T10:47:47;3.70;;;3.37;;
13075;SDS011;6604;52.484;13.330;2022-07-23T10:50:19;6.80;;;3.30;;
13075;SDS011;6604;52.484;13.330;2022-07-23T10:55:40;4.93;;;3.50;;
13075;SDS011;6604;52.484;13.330;2022-07-23T10:58:07;6.30;;;3.27;;
13075;SDS011;6604;52.484;13.330;2022-07-23T11:00:34;8.33;;;3.80;;
13075;SDS011;6604;52.484;13.330;2022-07-23T11:03:01;3.87;;;3.23;;
13075;SDS011;6604;52.484;13.330;2022-07-23T11:05:39;6.73;;;3.23;;
13075;SDS011;6604;52.484;13.330;2022-07-23T11:10:53;6.30;;;4.03;;
13075;SDS011;6604;52.484;13.330;2022-07-23T11:13:31;4.37;;;3.33;;
13075;SDS011;6604;52.484;13.330;2022-07-23T11:16:04;4.37;;;3.60;;
13075;SDS011;6604;52.484;13.330;2022-07-23T11:24:03;9.13;;;4.13;;
13075;SDS011;6604;52.484;13.330;2022-07-23T11:26:44;4.63;;;3.30;;
13075;SDS011;6604;52.484;13.330;2022-07-23T11:31:57;3.83;;;3.43;;
13075;SDS011;6604;52.484;13.330;2022-07-23T11:34:24;7.63;;;4.13;;
13075;SDS011;6604;52.484;13.330;2022-07-23T11:36:51;5.57;;;3.80;;
13075;SDS011;6604;52.484;13.330;2022-07-23T11:39:17;3.70;;;3.30;;
13075;SDS011;6604;52.484;13.330;2022-07-23T11:41:47;5.73;;;3.40;;
13075;SDS011;6604;52.484;13.330;2022-07-23T11:44:23;4.63;;;3.53;;
13075;SDS011;6604;52.484;13.330;2022-07-23T11:46:54;6.87;;;3.67;;
13075;SDS011;6604;52.484;13.330;2022-07-23T11:49:20;3.80;;;3.37;;
13075;SDS011;6604;52.484;13.330;2022-07-23T11:51:47;7.30;;;5.33;;
13075;SDS011;6604;52.484;13.330;2022-07-23T11:54:13;4.30;;;3.60;;
13075;SDS011;6604;52.484;13.330;2022-07-23T11:59:23;4.20;;;3.80;;
13075;SDS011;6604;52.484;13.330;2022-07-23T12:01:56;6.63;;;4.33;;
13075;SDS011;6604;52.484;13.330;2022-07-23T12:04:23;3.90;;;3.50;;
13075;SDS011;6604;52.484;13.330;2022-07-23T12:06:50;12.83;;;7.00;;
13075;SDS011;6604;52.484;13.330;2022-07-23T12:09:16;4.97;;;3.60;;
13075;SDS011;6604;52.484;13.330;2022-07-23T12:11:55;5.70;;;3.70;;
13075;SDS011;6604;52.484;13.330;2022-07-23T12:14:23;4.00;;;3.67;;
13075;SDS011;6604;52.484;13.330;2022-07-23T12:19:31;5.37;;;3.47;;
13075;SDS011;6604;52.484;13.330;2022-07-23T12:21:57;9.87;;;3.37;;
13075;SDS011;6604;52.484;13.330;2022-07-23T12:24:24;4.47;;;3.70;;
13075;SDS011;6604;52.484;13.330;2022-07-23T12:29:35;5.53;;;3.77;;
13075;SDS011;6604;52.484;13.330;2022-07-23T12:32:01;5.33;;;3.50;;
13075;SDS011;6604;52.484;13.330;2022-07-23T12:34:28;4.30;;;3.90;;
13075;SDS011;6604;52.484;13.330;2022-07-23T12:36:54;5.50;;;3.63;;
13075;SDS011;6604;52.484;13.330;2022-07-23T12:39:29;4.63;;;4.07;;
13075;SDS011;6604;52.484;13.330;2022-07-23T12:41:55;7.50;;;5.03;;
13075;SDS011;6604;52.484;13.330;2022-07-23T12:44:24;5.60;;;3.53;;
13075;SDS011;6604;52.484;13.330;2022-07-23T12:46:52;4.77;;;3.50;;
13075;SDS011;6604;52.484;13.330;2022-07-23T12:49:25;5.87;;;3.67;;
13075;SDS011;6604;52.484;13.330;2022-07-23T12:51:52;4.03;;;3.60;;
13075;SDS011;6604;52.484;13.330;2022-07-23T12:54:26;5.70;;;4.33;;
13075;SDS011;6604;52.484;13.330;2022-07-23T12:56:53;4.47;;;3.47;;
13075;SDS011;6604;52.484;13.330;2022-07-23T12:59:19;6.27;;;4.53;;
13075;SDS011;6604;52.484;13.330;2022-07-23T13:01:53;5.27;;;3.83;;
13075;SDS011;6604;52.484;13.330;2022-07-23T13:04:21;6.10;;;3.57;;
13075;SDS011;6604;52.484;13.330;2022-07-23T13:06:49;6.97;;;5.60;;
13075;SDS011;6604;52.484;13.330;2022-07-23T13:09:17;5.90;;;4.57;;
13075;SDS011;6604;52.484;13.330;2022-07-23T13:11:44;7.10;;;4.20;;
13075;SDS011;6604;52.484;13.330;2022-07-23T13:14:10;4.67;;;3.97;;
13075;SDS011;6604;52.484;13.330;2022-07-23T13:16:37;5.97;;;4.93;;
13075;SDS011;6604;52.484;13.330;2022-07-23T13:19:03;5.20;;;4.70;;
13075;SDS011;6604;52.484;13.330;2022-07-23T13:21:31;4.37;;;3.97;;
13075;SDS011;6604;52.484;13.330;2022-07-23T13:23:58;4.90;;;3.93;;
13075;SDS011;6604;52.484;13.330;2022-07-23T13:26:24;3.90;;;3.57;;
13075;SDS011;6604;52.484;13.330;2022-07-23T13:28:51;4.13;;;3.73;;
13075;SDS011;6604;52.484;13.330;2022-07-23T13:31:17;5.50;;;4.00;;
13075;SDS011;6604;52.484;13.330;2022-07-23T13:33:44;5.30;;;3.80;;
13075;SDS011;6604;52.484;13.330;2022-07-23T13:36:10;4.27;;;3.60;;
13075;SDS011;6604;52.484;13.330;2022-07-23T13:38:38;4.23;;;3.70;;
13075;SDS011;6604;52.484;13.330;2022-07-23T13:41:05;6.27;;;3.60;;
13075;SDS011;6604;52.484;13.330;2022-07-23T13:43:31;4.87;;;3.37;;
13075;SDS011;6604;52.484;13.330;2022-07-23T13:45:58;3.63;;;3.27;;
13075;SDS011;6604;52.484;13.330;2022-07-23T13:48:25;5.23;;;3.50;;
13075;SDS011;6604;52.484;13.330;2022-07-23T13:50:51;4.13;;;3.30;;
13075;SDS011;6604;52.484;13.330;2022-07-23T13:53:18;4.33;;;3.90;;
13075;SDS011;6604;52.484;13.330;2022-07-23T13:55:47;4.23;;;2.97;;
13075;SDS011;6604;52.484;13.330;2022-07-23T13:58:14;4.87;;;3.10;;
13075;SDS011;6604;52.484;13.330;2022-07-23T14:00:41;3.30;;;3.00;;
13075;SDS011;6604;52.484;13.330;2022-07-23T14:03:08;4.00;;;3.07;;
13075;SDS011;6604;52.484;13.330;2022-07-23T14:05:34;4.53;;;2.83;;
13075;SDS011;6604;52.484;13.330;2022-07-23T14:08:01;4.20;;;3.03;;
13075;SDS011;6604;52.484;13.330;2022-07-23T14:10:27;2.93;;;2.43;;
13075;SDS011;6604;52.484;13.330;2022-07-23T14:12:55;2.67;;;2.47;;
13075;SDS011;6604;52.484;13.330;2022-07-23T14:15:22;2.57;;;2.37;;
13075;SDS011;6604;52.484;13.330;2022-07-23T14:17:49;4.43;;;2.87;;
13075;SDS011;6604;52.484;13.330;2022-07-23T14:20:16;3.57;;;2.60;;
13075;SDS011;6604;52.484;13.330;2022-07-23T14:22:42;2.90;;;2.60;;
13075;SDS011;6604;52.484;13.330;2022-07-23T14:25:10;3.57;;;2.67;;
13075;SDS011;6604;52.484;13.330;2022-07-23T14:27:37;5.23;;;2.60;;
13075;SDS011;6604;52.484;13.330;2022-07-23T14:30:06;3.43;;;2.60;;
13075;SDS011;6604;52.484;13.330;2022-07-23T14:32:33;3.50;;;2.27;;
13075;SDS011;6604;52.484;13.330;2022-07-23T14:35:00;3.30;;;2.40;;
13075;SDS011;6604;52.484;13.330;2022-07-23T14:37:27;2.30;;;2.10;;
13075;SDS011;6604;52.484;13.330;2022-07-23T14:39:53;3.37;;;2.70;;
13075;SDS011;6604;52.484;13.330;2022-07-23T14:42:19;4.03;;;2.30;;
13075;SDS011;6604;52.484;13.330;2022-07-23T14:44:46;3.23;;;2.33;;
13075;SDS011;6604;52.484;13.330;2022-07-23T14:47:14;2.40;;;2.20;;
13075;SDS011;6604;52.484;13.330;2022-07-23T14:49:40;5.93;;;2.40;;
13075;SDS011;6604;52.484;13.330;2022-07-23T14:52:06;2.97;;;2.40;;
13075;SDS011;6604;52.484;13.330;2022-07-23T14:54:33;2.30;;;2.10;;
13075;SDS011;6604;52.484;13.330;2022-07-23T14:57:00;3.10;;;2.33;;
13075;SDS011;6604;52.484;13.330;2022-07-23T14:59:27;3.00;;;2.70;;
13075;SDS011;6604;52.484;13.330;2022-07-23T15:01:55;4.70;;;3.20;;
13075;SDS011;6604;52.484;13.330;2022-07-23T15:04:23;3.33;;;2.30;;
13075;SDS011;6604;52.484;13.330;2022-07-23T15:06:49;6.13;;;2.60;;
13075;SDS011;6604;52.484;13.330;2022-07-23T15:09:16;3.50;;;2.20;;
13075;SDS011;6604;52.484;13.330;2022-07-23T15:11:42;3.10;;;2.03;;
13075;SDS011;6604;52.484;13.330;2022-07-23T15:14:09;6.30;;;2.27;;
13075;SDS011;6604;52.484;13.330;2022-07-23T15:16:35;3.63;;;1.80;;
13075;SDS011;6604;52.484;13.330;2022-07-23T15:19:02;1.90;;;1.77;;
13075;SDS011;6604;52.484;13.330;2022-07-23T15:21:30;4.20;;;2.37;;
13075;SDS011;6604;52.484;13.330;2022-07-23T15:23:57;2.30;;;2.10;;
13075;SDS011;6604;52.484;13.330;2022-07-23T15:26:24;5.30;;;4.40;;
13075;SDS011;6604;52.484;13.330;2022-07-23T15:28:51;7.00;;;2.77;;
13075;SDS011;6604;52.484;13.330;2022-07-23T15:31:18;4.23;;;2.77;;
13075;SDS011;6604;52.484;13.330;2022-07-23T15:33:44;4.47;;;2.30;;
13075;SDS011;6604;52.484;13.330;2022-07-23T15:36:10;3.13;;;2.20;;
13075;SDS011;6604;52.484;13.330;2022-07-23T15:38:38;2.83;;;1.80;;
13075;SDS011;6604;52.484;13.330;2022-07-23T15:41:05;1.87;;;1.73;;
13075;SDS011;6604;52.484;13.330;2022-07-23T15:43:31;2.10;;;1.97;;
13075;SDS011;6604;52.484;13.330;2022-07-23T15:45:57;2.70;;;2.00;;
13075;SDS011;6604;52.484;13.330;2022-07-23T15:48:24;5.73;;;3.23;;
13075;SDS011;6604;52.484;13.330;2022-07-23T15:50:51;3.00;;;2.50;;
13075;SDS011;6604;52.484;13.330;2022-07-23T15:53:17;2.83;;;1.80;;
13075;SDS011;6604;52.484;13.330;2022-07-23T15:55:45;8.50;;;6.10;;
13075;SDS011;6604;52.484;13.330;2022-07-23T15:58:13;5.07;;;2.87;;
13075;SDS011;6604;52.484;13.330;2022-07-23T16:00:40;2.77;;;2.50;;
13075;SDS011;6604;52.484;13.330;2022-07-23T16:03:07;3.80;;;2.20;;
13075;SDS011;6604;52.484;13.330;2022-07-23T16:05:33;2.50;;;1.50;;
13075;SDS011;6604;52.484;13.330;2022-07-23T16:08:00;2.17;;;1.97;;
13075;SDS011;6604;52.484;13.330;2022-07-23T16:10:27;3.93;;;2.00;;
13075;SDS011;6604;52.484;13.330;2022-07-23T16:12:55;3.20;;;1.83;;
13075;SDS011;6604;52.484;13.330;2022-07-23T16:15:21;3.07;;;1.63;;
13075;SDS011;6604;52.484;13.330;2022-07-23T16:17:48;2.23;;;1.40;;
13075;SDS011;6604;52.484;13.330;2022-07-23T16:20:14;1.70;;;1.60;;
13075;SDS011;6604;52.484;13.330;2022-07-23T16:22:41;2.43;;;1.57;;
13075;SDS011;6604;52.484;13.330;2022-07-23T16:25:08;2.33;;;1.90;;
13075;SDS011;6604;52.484;13.330;2022-07-23T16:27:35;2.57;;;1.90;;
13075;SDS011;6604;52.484;13.330;2022-07-23T16:30:03;2.77;;;2.03;;
13075;SDS011;6604;52.484;13.330;2022-07-23T16:32:30;1.77;;;1.67;;
13075;SDS011;6604;52.484;13.330;2022-07-23T16:34:56;1.90;;;1.80;;
13075;SDS011;6604;52.484;13.330;2022-07-23T16:37:23;3.70;;;2.10;;
13075;SDS011;6604;52.484;13.330;2022-07-23T16:39:50;2.77;;;1.70;;
13075;SDS011;6604;52.484;13.330;2022-07-23T16:42:16;2.87;;;1.80;;
13075;SDS011;6604;52.484;13.330;2022-07-23T16:44:43;4.07;;;1.97;;
13075;SDS011;6604;52.484;13.330;2022-07-23T16:47:11;2.03;;;1.83;;
13075;SDS011;6604;52.484;13.330;2022-07-23T16:49:37;3.50;;;1.90;;
13075;SDS011;6604;52.484;13.330;2022-07-23T16:52:04;2.30;;;2.00;;
13075;SDS011;6604;52.484;13.330;2022-07-23T16:54:30;2.17;;;1.97;;
13075;SDS011;6604;52.484;13.330;2022-07-23T16:56:56;2.07;;;1.90;;
13075;SDS011;6604;52.484;13.330;2022-07-23T16:59:23;1.80;;;1.70;;
13075;SDS011;6604;52.484;13.330;2022-07-23T17:01:49;2.13;;;1.90;;
13075;SDS011;6604;52.484;13.330;2022-07-23T17:04:17;2.10;;;1.97;;
13075;SDS011;6604;52.484;13.330;2022-07-23T17:06:43;2.63;;;1.70;;
13075;SDS011;6604;52.484;13.330;2022-07-23T17:09:10;1.93;;;1.60;;
13075;SDS011;6604;52.484;13.330;2022-07-23T17:11:36;3.40;;;1.73;;
13075;SDS011;6604;52.484;13.330;2022-07-23T17:14:03;1.90;;;1.70;;
13075;SDS011;6604;52.484;13.330;2022-07-23T17:16:30;1.73;;;1.30;;
13075;SDS011;6604;52.484;13.330;2022-07-23T17:18:57;2.73;;;1.60;;
13075;SDS011;6604;52.484;13.330;2022-07-23T17:21:25;3.87;;;1.80;;
13075;SDS011;6604;52.484;13.330;2022-07-23T17:23:51;3.97;;;1.80;;
13075;SDS011;6604;52.484;13.330;2022-07-23T17:26:18;2.73;;;1.70;;
13075;SDS011;6604;52.484;13.330;2022-07-23T17:28:44;2.43;;;2.23;;
13075;SDS011;6604;52.484;13.330;2022-07-23T17:31:11;1.73;;;1.63;;
13075;SDS011;6604;52.484;13.330;2022-07-23T17:33:37;5.17;;;1.90;;
13075;SDS011;6604;52.484;13.330;2022-07-23T17:36:04;2.80;;;1.97;;
13075;SDS011;6604;52.484;13.330;2022-07-23T17:38:32;2.00;;;1.70;;
13075;SDS011;6604;52.484;13.330;2022-07-23T17:40:58;2.30;;;1.40;;
13075;SDS011;6604;52.484;13.330;2022-07-23T17:43:25;1.40;;;1.30;;
13075;SDS011;6604;52.484;13.330;2022-07-23T17:45:51;2.03;;;1.47;;
13075;SDS011;6604;52.484;13.330;2022-07-23T17:48:18;2.50;;;1.57;;
13075;SDS011;6604;52.484;13.330;2022-07-23T17:50:44;2.63;;;1.50;;
13075;SDS011;6604;52.484;13.330;2022-07-23T17:53:10;1.63;;;1.50;;
13075;SDS011;6604;52.484;13.330;2022-07-23T17:55:38;2.73;;;1.50;;
13075;SDS011;6604;52.484;13.330;2022-07-23T17:58:05;1.50;;;1.40;;
13075;SDS011;6604;52.484;13.330;2022-07-23T18:00:32;2.23;;;1.47;;
13075;SDS011;6604;52.484;13.330;2022-07-23T18:02:59;2.17;;;1.43;;
13075;SDS011;6604;52.484;13.330;2022-07-23T18:05:25;1.67;;;1.47;;
13075;SDS011;6604;52.484;13.330;2022-07-23T18:07:52;1.60;;;1.30;;
13075;SDS011;6604;52.484;13.330;2022-07-23T18:10:18;4.00;;;1.40;;
13075;SDS011;6604;52.484;13.330;2022-07-23T18:12:46;1.77;;;1.50;;
13075;SDS011;6604;52.484;13.330;2022-07-23T18:15:13;2.10;;;1.70;;
13075;SDS011;6604;52.484;13.330;2022-07-23T18:17:39;1.60;;;1.50;;
13075;SDS011;6604;52.484;13.330;2022-07-23T18:20:06;4.10;;;1.83;;
13075;SDS011;6604;52.484;13.330;2022-07-23T18:22:33;2.80;;;2.00;;
13075;SDS011;6604;52.484;13.330;2022-07-23T18:24:59;2.20;;;1.60;;
13075;SDS011;6604;52.484;13.330;2022-07-23T18:27:26;1.90;;;1.60;;
13075;SDS011;6604;52.484;13.330;2022-07-23T18:29:56;3.13;;;2.17;;
13075;SDS011;6604;52.484;13.330;2022-07-23T18:32:23;1.80;;;1.70;;
13075;SDS011;6604;52.484;13.330;2022-07-23T18:34:49;1.67;;;1.57;;
13075;SDS011;6604;52.484;13.330;2022-07-23T18:37:16;2.33;;;1.67;;
13075;SDS011;6604;52.484;13.330;2022-07-23T18:39:42;2.73;;;1.50;;
13075;SDS011;6604;52.484;13.330;2022-07-23T18:42:09;2.80;;;1.67;;
13075;SDS011;6604;52.484;13.330;2022-07-23T18:44:35;2.10;;;1.40;;
13075;SDS011;6604;52.484;13.330;2022-07-23T18:47:03;2.00;;;1.67;;
13075;SDS011;6604;52.484;13.330;2022-07-23T18:49:30;1.37;;;1.27;;
13075;SDS011;6604;52.484;13.330;2022-07-23T18:51:57;4.20;;;1.10;;
13075;SDS011;6604;52.484;13.330;2022-07-23T18:54:23;1.17;;;1.13;;
13075;SDS011;6604;52.484;13.330;2022-07-23T18:56:50;1.13;;;1.07;;
13075;SDS011;6604;52.484;13.330;2022-07-23T18:59:16;2.53;;;1.77;;
13075;SDS011;6604;52.484;13.330;2022-07-23T19:01:44;6.50;;;5.87;;
13075;SDS011;6604;52.484;13.330;2022-07-23T19:04:12;2.60;;;2.40;;
13075;SDS011;6604;52.484;13.330;2022-07-23T19:06:39;2.90;;;1.93;;
13075;SDS011;6604;52.484;13.330;2022-07-23T19:09:06;2.33;;;1.40;;
13075;SDS011;6604;52.484;13.330;2022-07-23T19:11:32;2.40;;;1.40;;
13075;SDS011;6604;52.484;13.330;2022-07-23T19:13:59;1.23;;;1.13;;
13075;SDS011;6604;52.484;13.330;2022-07-23T19:16:25;1.90;;;1.10;;
13075;SDS011;6604;52.484;13.330;2022-07-23T19:18:51;1.00;;;1.00;;
13075;SDS011;6604;52.484;13.330;2022-07-23T19:21:19;1.93;;;1.17;;
13075;SDS011;6604;52.484;13.330;2022-07-23T19:23:45;1.33;;;1.00;;
13075;SDS011;6604;52.484;13.330;2022-07-23T19:26:12;2.37;;;1.17;;
13075;SDS011;6604;52.484;13.330;2022-07-23T19:28:38;1.13;;;1.07;;
13075;SDS011;6604;52.484;13.330;2022-07-23T19:31:05;2.97;;;1.40;;
13075;SDS011;6604;52.484;13.330;2022-07-23T19:33:31;1.37;;;1.20;;
13075;SDS011;6604;52.484;13.330;2022-07-23T19:35:57;2.60;;;1.10;;
13075;SDS011;6604;52.484;13.330;2022-07-23T19:38:27;1.30;;;1.20;;
13075;SDS011;6604;52.484;13.330;2022-07-23T19:40:53;3.10;;;1.40;;
13075;SDS011;6604;52.484;13.330;2022-07-23T19:43:20;1.13;;;1.13;;
13075;SDS011;6604;52.484;13.330;2022-07-23T19:45:46;2.57;;;1.40;;
13075;SDS011;6604;52.484;13.330;2022-07-23T19:48:13;1.40;;;1.30;;
13075;SDS011;6604;52.484;13.330;2022-07-23T19:50:39;1.47;;;1.30;;
13075;SDS011;6604;52.484;13.330;2022-07-23T19:53:07;1.50;;;1.40;;
13075;SDS011;6604;52.484;13.330;2022-07-23T19:55:35;2.97;;;1.20;;
13075;SDS011;6604;52.484;13.330;2022-07-23T19:58:01;1.57;;;1.20;;
13075;SDS011;6604;52.484;13.330;2022-07-23T20:00:28;1.40;;;1.27;;
13075;SDS011;6604;52.484;13.330;2022-07-23T20:02:54;1.40;;;1.30;;
13075;SDS011;6604;52.484;13.330;2022-07-23T20:05:21;1.30;;;1.20;;
13075;SDS011;6604;52.484;13.330;2022-07-23T20:07:48;1.00;;;1.00;;
13075;SDS011;6604;52.484;13.330;2022-07-23T20:10:14;2.20;;;1.00;;
13075;SDS011;6604;52.484;13.330;2022-07-23T20:12:42;1.30;;;1.20;;
13075;SDS011;6604;52.484;13.330;2022-07-23T20:15:09;1.37;;;1.10;;
13075;SDS011;6604;52.484;13.330;2022-07-23T20:17:36;1.13;;;1.00;;
13075;SDS011;6604;52.484;13.330;2022-07-23T20:20:03;1.40;;;1.17;;
13075;SDS011;6604;52.484;13.330;2022-07-23T20:22:30;1.70;;;1.03;;
13075;SDS011;6604;52.484;13.330;2022-07-23T20:24:57;1.20;;;1.10;;
13075;SDS011;6604;52.484;13.330;2022-07-23T20:27:23;1.40;;;1.20;;
13075;SDS011;6604;52.484;13.330;2022-07-23T20:29:51;2.37;;;1.30;;
13075;SDS011;6604;52.484;13.330;2022-07-23T20:32:18;1.33;;;1.23;;
13075;SDS011;6604;52.484;13.330;2022-07-23T20:34:44;1.70;;;1.47;;
13075;SDS011;6604;52.484;13.330;2022-07-23T20:37:10;2.73;;;1.20;;
13075;SDS011;6604;52.484;13.330;2022-07-23T20:39:37;1.47;;;1.10;;
13075;SDS011;6604;52.484;13.330;2022-07-23T20:42:03;1.83;;;1.30;;
13075;SDS011;6604;52.484;13.330;2022-07-23T20:44:30;2.10;;;1.60;;
13075;SDS011;6604;52.484;13.330;2022-07-23T20:46:58;2.00;;;1.00;;
13075;SDS011;6604;52.484;13.330;2022-07-23T20:49:24;1.37;;;1.27;;
13075;SDS011;6604;52.484;13.330;2022-07-23T20:51:51;2.33;;;1.20;;
13075;SDS011;6604;52.484;13.330;2022-07-23T20:54:17;2.90;;;1.17;;
13075;SDS011;6604;52.484;13.330;2022-07-23T20:56:44;1.20;;;1.00;;
13075;SDS011;6604;52.484;13.330;2022-07-23T20:59:10;2.40;;;1.43;;
13075;SDS011;6604;52.484;13.330;2022-07-23T21:01:37;1.40;;;1.30;;
13075;SDS011;6604;52.484;13.330;2022-07-23T21:04:05;4.33;;;2.20;;
13075;SDS011;6604;52.484;13.330;2022-07-23T21:06:31;1.83;;;1.20;;
13075;SDS011;6604;52.484;13.330;2022-07-23T21:08:57;1.70;;;1.60;;
13075;SDS011;6604;52.484;13.330;2022-07-23T21:11:24;2.23;;;1.53;;
13075;SDS011;6604;52.484;13.330;2022-07-23T21:13:50;1.30;;;1.20;;
13075;SDS011;6604;52.484;13.330;2022-07-23T21:16:16;1.07;;;0.97;;
13075;SDS011;6604;52.484;13.330;2022-07-23T21:18:43;0.97;;;0.97;;
13075;SDS011;6604;52.484;13.330;2022-07-23T21:21:11;1.53;;;1.33;;
13075;SDS011;6604;52.484;13.330;2022-07-23T21:23:39;2.90;;;1.00;;
13075;SDS011;6604;52.484;13.330;2022-07-23T21:26:06;1.30;;;1.20;;
13075;SDS011;6604;52.484;13.330;2022-07-23T21:28:33;3.27;;;1.57;;
13075;SDS011;6604;52.484;13.330;2022-07-23T21:30:59;1.57;;;1.47;;
13075;SDS011;6604;52.484;13.330;2022-07-23T21:33:26;1.27;;;1.10;;
13075;SDS011;6604;52.484;13.330;2022-07-23T21:35:52;1.40;;;1.30;;
13075;SDS011;6604;52.484;13.330;2022-07-23T21:38:20;1.03;;;1.03;;
13075;SDS011;6604;52.484;13.330;2022-07-23T21:40:46;1.30;;;1.20;;
13075;SDS011;6604;52.484;13.330;2022-07-23T21:43:13;1.07;;;1.07;;
13075;SDS011;6604;52.484;13.330;2022-07-23T21:45:39;2.47;;;1.40;;
13075;SDS011;6604;52.484;13.330;2022-07-23T21:48:05;2.17;;;1.20;;
13075;SDS011;6604;52.484;13.330;2022-07-23T21:50:32;2.63;;;1.23;;
13075;SDS011;6604;52.484;13.330;2022-07-23T21:52:58;2.53;;;1.40;;
13075;SDS011;6604;52.484;13.330;2022-07-23T21:55:26;1.60;;;1.27;;
13075;SDS011;6604;52.484;13.330;2022-07-23T21:57:52;1.43;;;1.17;;
13075;SDS011;6604;52.484;13.330;2022-07-23T22:00:20;2.97;;;1.50;;
13075;SDS011;6604;52.484;13.330;2022-07-23T22:02:47;1.33;;;1.20;;
13075;SDS011;6604;52.484;13.330;2022-07-23T22:05:14;1.97;;;1.53;;
13075;SDS011;6604;52.484;13.330;2022-07-23T22:07:40;2.40;;;1.40;;
13075;SDS011;6604;52.484;13.330;2022-07-23T22:10:07;4.37;;;1.97;;
13075;SDS011;6604;52.484;13.330;2022-07-23T22:12:36;1.43;;;1.20;;
13075;SDS011;6604;52.484;13.330;2022-07-23T22:15:02;1.50;;;1.40;;
13075;SDS011;6604;52.484;13.330;2022-07-23T22:17:29;1.47;;;1.27;;
13075;SDS011;6604;52.484;13.330;2022-07-23T22:19:55;5.17;;;1.20;;
13075;SDS011;6604;52.484;13.330;2022-07-23T22:22:22;2.60;;;1.30;;
13075;SDS011;6604;52.484;13.330;2022-07-23T22:24:48;1.70;;;1.03;;
13075;SDS011;6604;52.484;13.330;2022-07-23T22:27:14;1.30;;;1.20;;
13075;SDS011;6604;52.484;13.330;2022-07-23T22:29:42;1.10;;;1.00;;
13075;SDS011;6604;52.484;13.330;2022-07-23T22:32:09;1.33;;;1.07;;
13075;SDS011;6604;52.484;13.330;2022-07-23T22:34:35;1.17;;;1.07;;
13075;SDS011;6604;52.484;13.330;2022-07-23T22:37:02;1.93;;;1.70;;
13075;SDS011;6604;52.484;13.330;2022-07-23T22:39:28;1.73;;;1.20;;
13075;SDS011;6604;52.484;13.330;2022-07-23T22:41:55;1.63;;;1.27;;
13075;SDS011;6604;52.484;13.330;2022-07-23T22:44:21;1.57;;;1.20;;
13075;SDS011;6604;52.484;13.330;2022-07-23T22:46:49;2.40;;;1.10;;
13075;SDS011;6604;52.484;13.330;2022-07-23T22:49:16;1.00;;;1.00;;
13075;SDS011;6604;52.484;13.330;2022-07-23T22:51:42;1.97;;;1.10;;
13075;SDS011;6604;52.484;13.330;2022-07-23T22:54:08;2.27;;;1.20;;
13075;SDS011;6604;52.484;13.330;2022-07-23T22:56:35;1.73;;;1.20;;
13075;SDS011;6604;52.484;13.330;2022-07-23T22:59:02;3.50;;;1.73;;
13075;SDS011;6604;52.484;13.330;2022-07-23T23:01:29;1.33;;;1.20;;
13075;SDS011;6604;52.484;13.330;2022-07-23T23:03:57;1.60;;;1.23;;